Time;durP1;ratioP1;P1;durP2;ratioP2;P2;SDS_P1;SDS_P2;PMS_P1;PMS_P2;Temp;Humidity;BMP_temperature;BMP_pressure;BME280_temperature;BME280_humidity;BME280_pressure;Samples;Min_cycle;Max_cycle;Signal;HPM_P1;HPM_P2
2022/04/24 15:56:03;;;;;;;4.77;2.63;;;14.90;99.90;;;;;;5091353;27;21302;-75
2022/04/24 15:58:47;;;;;;;6.10;2.93;;;14.90;99.90;;;;;;5073098;28;20274;-74
2022/04/24 16:01:32;;;;;;;5.47;3.23;;;14.90;99.90;;;;;;5063176;28;20907;-74
2022/04/24 16:04:16;;;;;;;4.67;3.37;;;15.00;99.90;;;;;;5062071;28;20194;-73
2022/04/24 16:07:00;;;;;;;7.13;3.00;;;15.00;99.90;;;;;;5062288;28;20279;-74
2022/04/24 16:09:44;;;;;;;6.17;2.83;;;15.00;99.90;;;;;;5060295;28;20190;-73
2022/04/24 16:12:31;;;;;;;7.13;3.10;;;15.00;99.90;;;;;;5067842;28;20741;-74
2022/04/24 16:15:15;;;;;;;4.67;3.00;;;15.00;99.90;;;;;;5062870;28;20264;-74
2022/04/24 16:17:59;;;;;;;7.57;3.23;;;15.00;99.90;;;;;;5061520;28;20202;-74
2022/04/24 16:20:44;;;;;;;8.50;3.30;;;14.90;99.90;;;;;;5061976;28;20309;-75
2022/04/24 16:23:29;;;;;;;5.10;3.53;;;14.90;99.90;;;;;;5062431;28;20217;-75
2022/04/24 16:26:15;;;;;;;6.60;3.30;;;14.90;99.90;;;;;;5061598;28;20592;-74
2022/04/24 16:28:59;;;;;;;8.00;3.30;;;14.90;99.90;;;;;;5063311;28;20194;-74
2022/04/24 16:31:44;;;;;;;6.93;3.37;;;14.90;99.90;;;;;;5063465;28;20186;-75
2022/04/24 16:34:31;;;;;;;6.37;3.50;;;14.80;99.90;;;;;;5063082;28;20213;-75
2022/04/24 16:37:18;;;;;;;6.77;3.60;;;14.80;99.90;;;;;;5061130;28;20217;-75
2022/04/24 16:40:04;;;;;;;4.97;3.33;;;14.60;99.90;;;;;;5063616;28;20186;-76
2022/04/24 16:42:49;;;;;;;7.30;3.70;;;14.50;99.90;;;;;;5063590;28;20194;-75
2022/04/24 16:45:33;;;;;;;4.60;3.17;;;14.50;99.90;;;;;;5060978;28;20266;-74
2022/04/24 16:48:18;;;;;;;5.60;3.53;;;14.50;99.90;;;;;;5059421;28;20209;-75
2022/04/24 17:00:11;;;;;;;7.30;3.67;;;14.30;99.90;;;;;;5060505;28;20197;-75
2022/04/24 17:02:59;;;;;;;5.90;4.07;;;14.30;99.90;;;;;;5061188;28;20228;-75
2022/04/24 17:05:44;;;;;;;7.90;4.07;;;14.20;99.90;;;;;;5059455;28;20210;-75
2022/04/24 17:08:28;;;;;;;6.87;3.83;;;14.20;99.90;;;;;;5047354;28;20199;-75
2022/04/24 17:11:14;;;;;;;6.70;4.20;;;14.10;99.90;;;;;;5043127;23;20230;-74
2022/04/24 17:13:58;;;;;;;7.97;3.97;;;14.00;99.90;;;;;;5043476;28;20214;-75
2022/04/24 17:16:43;;;;;;;5.33;3.70;;;13.90;99.90;;;;;;5028546;28;20183;-74
2022/04/24 17:19:27;;;;;;;5.60;4.03;;;13.90;99.90;;;;;;5034004;28;20270;-74
2022/04/24 17:22:11;;;;;;;8.07;3.70;;;13.80;99.90;;;;;;5037699;28;20213;-75
2022/04/24 17:24:55;;;;;;;5.63;4.10;;;13.80;99.90;;;;;;5037334;28;20262;-75
2022/04/24 17:27:39;;;;;;;6.67;4.03;;;13.70;99.90;;;;;;5034109;28;20187;-75
2022/04/24 17:30:25;;;;;;;6.07;3.67;;;13.60;99.90;;;;;;5035716;28;20211;-75
2022/04/24 17:33:09;;;;;;;7.23;4.07;;;13.50;99.90;;;;;;5035261;28;20635;-75
2022/04/24 17:35:54;;;;;;;4.40;3.57;;;13.50;99.90;;;;;;5034608;28;20226;-74
2022/04/24 17:38:38;;;;;;;6.97;4.07;;;13.40;99.90;;;;;;5035244;28;20182;-75
2022/04/24 17:41:22;;;;;;;5.27;3.77;;;13.40;99.90;;;;;;5034663;28;20276;-74
2022/04/24 17:44:06;;;;;;;6.53;4.00;;;13.30;99.90;;;;;;5038142;28;20191;-75
2022/04/24 17:46:51;;;;;;;5.20;4.07;;;13.20;99.90;;;;;;5039374;28;20214;-75
2022/04/24 17:49:36;;;;;;;7.20;4.20;;;13.20;99.90;;;;;;5043841;28;20584;-76
2022/04/24 17:52:20;;;;;;;8.60;5.00;;;13.10;99.90;;;;;;5037999;28;20206;-77
2022/04/24 17:55:06;;;;;;;6.33;3.90;;;13.00;99.90;;;;;;5036305;28;20267;-75
2022/04/24 17:57:50;;;;;;;6.83;4.13;;;13.00;99.90;;;;;;5038329;28;20183;-76
2022/04/24 18:00:35;;;;;;;5.77;4.23;;;13.00;99.90;;;;;;5042156;28;20202;-76
2022/04/24 18:03:19;;;;;;;11.83;4.30;;;12.90;99.90;;;;;;5054416;28;20797;-77
2022/04/24 18:06:03;;;;;;;6.77;4.03;;;12.90;99.90;;;;;;5043694;28;20249;-77
2022/04/24 18:08:48;;;;;;;7.00;4.17;;;12.80;99.90;;;;;;5039087;28;20198;-76
2022/04/24 18:11:33;;;;;;;7.47;4.50;;;12.80;99.90;;;;;;5043836;28;20229;-76
2022/04/24 18:14:17;;;;;;;4.67;3.87;;;12.80;99.90;;;;;;5041217;28;20242;-76
2022/04/24 18:17:02;;;;;;;7.13;4.37;;;12.80;99.90;;;;;;5038510;28;20186;-76
2022/04/24 18:19:47;;;;;;;8.70;4.50;;;12.70;99.90;;;;;;5038356;28;20298;-76
2022/04/24 18:22:32;;;;;;;6.43;4.10;;;12.70;99.90;;;;;;5037608;28;20200;-76
2022/04/24 18:25:23;;;;;;;6.73;4.30;;;12.70;99.90;;;;;;5043930;28;20268;-76
2022/04/24 18:28:14;;;;;;;7.83;4.90;;;12.70;99.90;;;;;;5037310;28;20190;-76
2022/04/24 18:30:58;;;;;;;10.63;4.77;;;12.60;99.90;;;;;;5043317;28;20230;-77
2022/04/24 18:33:43;;;;;;;7.53;4.57;;;12.50;99.90;;;;;;5040920;28;20689;-77
2022/04/24 18:39:30;;;;;;;9.70;5.20;;;12.40;99.90;;;;;;5042290;28;20218;-76
2022/04/24 18:42:15;;;;;;;8.50;4.17;;;12.30;99.90;;;;;;5036379;28;20182;-76
2022/04/24 18:44:59;;;;;;;9.23;4.70;;;12.20;99.90;;;;;;5041495;28;20238;-76
2022/04/24 18:47:43;;;;;;;6.57;4.37;;;12.10;99.90;;;;;;5038454;28;20312;-78
2022/04/24 18:50:29;;;;;;;5.87;4.13;;;12.10;99.90;;;;;;5039597;28;20211;-79
2022/04/24 18:53:13;;;;;;;9.63;5.03;;;12.00;99.90;;;;;;5052684;28;20314;-77
2022/04/24 18:56:01;;;;;;;7.20;4.43;;;11.90;99.90;;;;;;5038055;28;20334;-77
2022/04/24 18:58:46;;;;;;;5.10;4.20;;;11.90;99.90;;;;;;5052071;28;20206;-77
2022/04/24 19:01:31;;;;;;;7.70;4.60;;;11.80;99.90;;;;;;5037054;28;20188;-77
2022/04/24 19:07:41;;;;;;;6.47;4.90;;;11.80;99.90;;;;;;5038524;28;20261;-78
2022/04/24 19:13:29;;;;;;;6.10;4.10;;;11.70;99.90;;;;;;5037061;28;20695;-78
2022/04/24 19:16:16;;;;;;;8.03;4.37;;;11.60;99.90;;;;;;5036447;28;20207;-77
2022/04/24 19:19:03;;;;;;;6.67;4.20;;;11.50;99.90;;;;;;5050289;28;20546;-76
2022/04/24 19:21:51;;;;;;;10.70;4.77;;;11.50;99.90;;;;;;5040522;28;20195;-77
2022/04/24 19:24:36;;;;;;;7.63;4.17;;;11.50;99.90;;;;;;5042028;28;20191;-77
2022/04/24 19:27:21;;;;;;;8.27;4.73;;;11.40;99.90;;;;;;5036376;28;20234;-77
2022/04/24 19:30:13;;;;;;;8.53;4.73;;;11.40;99.90;;;;;;5032290;28;20214;-77
2022/04/24 19:32:58;;;;;;;8.37;5.27;;;11.30;99.90;;;;;;5040599;28;20203;-77
2022/04/24 19:35:43;;;;;;;9.10;4.53;;;11.30;99.90;;;;;;5037133;28;20206;-76
2022/04/24 19:38:28;;;;;;;8.27;4.70;;;11.20;99.90;;;;;;5039456;28;20198;-77
2022/04/24 19:41:12;;;;;;;6.47;4.83;;;11.20;99.90;;;;;;5036938;28;20215;-76
2022/04/24 19:43:57;;;;;;;7.50;5.20;;;11.20;99.90;;;;;;5038187;28;20195;-77
2022/04/24 19:46:41;;;;;;;9.57;5.03;;;11.10;99.90;;;;;;5038651;28;20770;-76
2022/04/24 19:49:26;;;;;;;14.67;5.10;;;11.00;99.90;;;;;;5034216;28;20293;-76
2022/04/24 19:52:13;;;;;;;9.20;5.17;;;10.90;99.90;;;;;;5036962;28;20206;-77
2022/04/24 19:54:58;;;;;;;9.40;5.03;;;10.90;99.90;;;;;;5035505;28;20400;-76
2022/04/24 19:57:43;;;;;;;6.90;4.60;;;10.90;99.90;;;;;;5035484;28;20180;-77
2022/04/24 20:00:27;;;;;;;6.70;4.77;;;10.80;99.90;;;;;;5036432;28;20222;-77
2022/04/24 20:03:12;;;;;;;8.30;5.73;;;10.70;99.90;;;;;;5035904;28;20191;-77
2022/04/24 20:05:56;;;;;;;7.87;5.73;;;10.70;99.90;;;;;;5035036;28;20207;-77
2022/04/24 20:08:41;;;;;;;7.70;4.83;;;10.70;99.90;;;;;;5037154;28;20449;-77
2022/04/24 20:11:26;;;;;;;9.33;4.80;;;10.60;99.90;;;;;;5035277;28;20222;-78
2022/04/24 20:14:13;;;;;;;10.70;5.53;;;10.60;99.90;;;;;;5033021;28;20214;-76
2022/04/24 20:16:58;;;;;;;8.30;5.70;;;10.60;99.90;;;;;;5033433;28;20190;-75
2022/04/24 20:19:42;;;;;;;11.00;5.13;;;10.50;99.90;;;;;;5036509;28;20254;-77
2022/04/24 20:22:31;;;;;;;8.73;5.70;;;10.50;99.90;;;;;;5037057;28;20258;-76
2022/04/24 20:25:18;;;;;;;13.13;5.20;;;10.50;99.90;;;;;;5035106;28;20207;-78
2022/04/24 20:28:06;;;;;;;9.10;5.30;;;10.40;99.90;;;;;;5050339;28;20213;-76
2022/04/24 20:30:51;;;;;;;11.63;6.10;;;10.40;99.90;;;;;;5046220;28;20846;-77
2022/04/24 20:33:35;;;;;;;7.87;5.73;;;10.40;99.90;;;;;;5037095;28;20195;-76
2022/04/24 20:36:21;;;;;;;12.60;5.87;;;10.30;99.90;;;;;;5033185;28;20257;-76
2022/04/24 20:39:10;;;;;;;9.27;5.83;;;10.30;99.90;;;;;;5026303;28;20203;-76
2022/04/24 20:41:54;;;;;;;7.67;5.47;;;10.30;99.90;;;;;;5042479;28;20608;-76
2022/04/24 20:44:41;;;;;;;9.40;5.90;;;10.20;99.90;;;;;;5040217;28;20183;-76
2022/04/24 20:47:26;;;;;;;11.30;5.67;;;10.20;99.90;;;;;;5039123;28;20188;-76
2022/04/24 20:50:10;;;;;;;10.97;5.30;;;10.20;99.90;;;;;;5037916;28;20222;-75
2022/04/24 20:52:54;;;;;;;11.37;6.73;;;10.10;99.90;;;;;;5038845;28;20261;-76
2022/04/24 20:55:38;;;;;;;13.17;6.60;;;10.10;99.90;;;;;;5039412;28;20239;-76
2022/04/24 20:58:23;;;;;;;7.70;5.80;;;10.10;99.90;;;;;;5040095;28;20309;-76
2022/04/24 21:01:07;;;;;;;13.53;7.07;;;10.00;99.90;;;;;;5041544;28;20317;-75
2022/04/24 21:03:51;;;;;;;12.45;7.68;;;10.00;99.90;;;;;;5037509;28;20433;-75
2022/04/24 21:06:36;;;;;;;13.68;8.80;;;9.90;99.90;;;;;;5036679;28;20414;-76
2022/04/24 21:09:25;;;;;;;12.23;8.63;;;10.00;99.90;;;;;;5052791;28;20500;-76
2022/04/24 21:12:10;;;;;;;13.67;7.03;;;10.10;99.90;;;;;;5055615;28;20202;-76
2022/04/24 21:14:54;;;;;;;12.20;6.73;;;10.00;99.90;;;;;;5039084;28;20250;-75
2022/04/24 21:17:40;;;;;;;12.55;8.27;;;10.00;99.90;;;;;;5042265;28;20441;-76
2022/04/24 21:20:24;;;;;;;11.37;6.77;;;10.00;99.90;;;;;;5042158;28;20214;-77
2022/04/24 21:23:09;;;;;;;13.77;6.40;;;9.90;99.90;;;;;;5038739;28;20215;-76
2022/04/24 21:25:56;;;;;;;9.33;5.97;;;9.90;99.90;;;;;;5043871;28;20203;-77
2022/04/24 21:28:41;;;;;;;16.27;6.63;;;9.90;99.90;;;;;;5044587;28;20191;-76
2022/04/24 21:31:28;;;;;;;12.40;6.13;;;9.80;99.90;;;;;;5040591;28;20254;-76
2022/04/24 21:34:17;;;;;;;13.80;6.83;;;9.80;99.90;;;;;;5039751;28;20293;-77
2022/04/24 21:37:02;;;;;;;11.03;6.30;;;9.80;99.90;;;;;;5043122;28;20198;-76
2022/04/24 21:39:46;;;;;;;10.87;6.30;;;9.70;99.90;;;;;;5040046;28;20218;-75
2022/04/24 21:42:31;;;;;;;11.23;6.70;;;9.70;99.90;;;;;;5043443;28;20205;-76
2022/04/24 21:45:17;;;;;;;10.63;6.33;;;9.70;99.90;;;;;;5038168;28;20565;-76
2022/04/24 21:48:02;;;;;;;12.03;6.77;;;9.70;99.90;;;;;;5042657;28;20201;-75
2022/04/24 21:50:46;;;;;;;11.07;6.13;;;9.60;99.90;;;;;;5042735;28;20226;-76
2022/04/24 21:53:31;;;;;;;9.57;5.87;;;9.60;99.90;;;;;;5042251;28;20191;-76
2022/04/24 21:56:15;;;;;;;18.17;6.47;;;9.50;99.90;;;;;;5041920;28;20218;-76
2022/04/24 21:59:01;;;;;;;9.43;5.77;;;9.50;99.90;;;;;;5037946;28;20214;-76
2022/04/24 22:04:48;;;;;;;13.93;7.03;;;9.50;99.90;;;;;;5040387;28;20245;-76
2022/04/24 22:07:32;;;;;;;11.20;6.77;;;9.50;99.90;;;;;;5039583;28;20195;-77
2022/04/24 22:10:17;;;;;;;13.02;8.18;;;9.40;99.90;;;;;;5038337;28;20473;-76
2022/04/24 22:13:01;;;;;;;12.83;7.03;;;9.50;99.90;;;;;;5039631;28;20199;-75
2022/04/24 22:15:46;;;;;;;13.02;8.82;;;9.40;99.90;;;;;;5051276;28;20422;-76
2022/04/24 22:18:31;;;;;;;12.73;6.50;;;9.40;99.90;;;;;;5041748;28;20238;-74
2022/04/24 22:24:25;;;;;;;12.77;7.23;;;9.40;99.90;;;;;;5037703;28;20237;-74
2022/04/24 22:27:10;;;;;;;13.98;8.77;;;9.30;99.90;;;;;;5036556;28;20390;-75
2022/04/24 22:29:55;;;;;;;13.10;7.67;;;9.30;99.90;;;;;;5041313;28;20299;-77
2022/04/24 22:32:39;;;;;;;10.43;6.83;;;9.30;99.90;;;;;;5043411;28;20195;-76
2022/04/24 22:35:24;;;;;;;14.40;7.43;;;9.40;99.90;;;;;;5040436;28;20230;-76
2022/04/24 22:38:09;;;;;;;11.33;6.90;;;9.30;99.90;;;;;;5039782;28;20190;-75
2022/04/24 22:40:53;;;;;;;17.13;7.50;;;9.30;99.90;;;;;;5038828;28;20243;-75
2022/04/24 22:43:38;;;;;;;13.57;8.87;;;9.30;99.90;;;;;;5039666;28;20407;-75
2022/04/24 22:46:22;;;;;;;11.47;7.57;;;9.20;99.90;;;;;;5056385;28;20474;-76
2022/04/24 22:49:09;;;;;;;10.37;7.07;;;9.20;99.90;;;;;;5032530;28;20195;-75
2022/04/24 22:51:54;;;;;;;14.47;7.70;;;9.20;99.90;;;;;;5034403;28;20203;-75
2022/04/24 22:54:38;;;;;;;14.40;9.35;;;9.10;99.90;;;;;;5035939;28;20428;-75
2022/04/24 22:57:22;;;;;;;12.33;7.97;;;9.20;99.90;;;;;;5036542;28;20223;-75
2022/04/24 23:00:09;;;;;;;13.23;9.10;;;9.10;99.90;;;;;;5035472;28;20460;-74
2022/04/24 23:02:54;;;;;;;14.30;9.82;;;9.20;99.90;;;;;;5036506;28;20396;-75
2022/04/24 23:05:38;;;;;;;14.50;8.13;;;9.20;99.90;;;;;;5035549;28;20198;-74
2022/04/24 23:08:22;;;;;;;16.00;7.10;;;9.30;99.90;;;;;;5034442;28;20237;-75
2022/04/24 23:11:06;;;;;;;13.77;9.25;;;9.30;99.90;;;;;;5035092;28;20424;-75
2022/04/24 23:13:51;;;;;;;14.13;9.10;;;9.20;99.90;;;;;;5036093;28;20420;-75
2022/04/24 23:16:36;;;;;;;12.73;8.03;;;9.20;99.90;;;;;;5033102;28;20236;-74
2022/04/24 23:19:20;;;;;;;11.70;8.10;;;9.20;99.90;;;;;;5032512;28;20694;-75
2022/04/24 23:22:06;;;;;;;18.63;10.00;;;9.10;99.90;;;;;;5034193;28;20429;-74
2022/04/24 23:24:51;;;;;;;13.70;9.63;;;9.10;99.90;;;;;;5030832;28;20555;-74
2022/04/24 23:27:36;;;;;;;14.23;9.20;;;9.10;99.90;;;;;;5033572;28;20467;-74
2022/04/24 23:30:21;;;;;;;15.00;8.17;;;9.10;99.90;;;;;;5035357;28;20219;-76
2022/04/24 23:33:08;;;;;;;15.27;10.18;;;9.10;99.90;;;;;;5036850;28;20475;-74
2022/04/24 23:35:52;;;;;;;14.80;9.87;;;9.10;99.90;;;;;;5048600;28;21020;-76
2022/04/24 23:38:37;;;;;;;14.80;8.00;;;9.10;99.90;;;;;;5036478;28;20269;-74
2022/04/24 23:41:22;;;;;;;13.95;9.43;;;9.00;99.90;;;;;;5032802;28;20412;-75
2022/04/24 23:44:08;;;;;;;15.07;8.40;;;9.00;99.90;;;;;;5035753;28;20253;-75
2022/04/24 23:46:53;;;;;;;12.33;7.63;;;8.90;99.90;;;;;;5036782;28;20194;-75
2022/04/24 23:49:37;;;;;;;15.03;8.57;;;8.90;99.90;;;;;;5034858;28;20248;-76
2022/04/24 23:52:22;;;;;;;14.80;7.87;;;8.90;99.90;;;;;;5034798;28;20195;-75
2022/04/24 23:55:07;;;;;;;16.90;8.33;;;8.80;99.90;;;;;;5034162;28;20218;-76
2022/04/24 23:57:52;;;;;;;11.20;7.17;;;8.90;99.90;;;;;;5050354;28;20202;-75
